Saint Charles, Virginia
Current Conditions -  °F | °C
As of 4:15 PM on Monday 22 Dec 2014 (Local Time) from K0VG Reporting Station
Clear Clear  
Wind Chill: 57°   Ceiling: Unl
Heat Index: 57°   Visibility: 10mi
Dew Point: 41°   Wind: 0mph
Humidity: 55%   Direction: NA
Pressure: 29.87"   Gusts: NA
Location:  36.8°N, 83.06°W
Report Text: K0VG 222115Z AUTO 00000KT 10SM CLR 14/05 A2987 RMK AO2
Loading
Personal Weather Stations






























Interactive Weather Map New forecast layout! Learn more

10-Day Weather Forecast

Advertisements
Track Severe Weather on mobile